Main page
METAR-TAF:

METAR-TAF

Airports :

Frankfurt–Hahn Airport

Hahn, Germany

latitude: 49-57N, longitude: 007-16E, elevation: 491 m

Current weather observation

The report was made 31 minutes ago, at 11:20 UTC
Wind 5 kt from variable directions
Temperature 6°C
Humidity 39%
Pressure 1019 hPa
Visibility 10 km or more
no clouds below 1500 m and no cumulonimbus

METAR: EDFH 011120Z VRB05KT CAVOK 06/M07 Q1019

Time: 13:51 (11:51 UTC)

Forecast

The report was made 51 minutes ago, at 11:00 UTC
Forecast valid from 01 at 12 UTC to 02 at 12 UTC
Wind 5 kt from the East/Northeast
Visibility 10 km or more
no clouds below 1500 m and no cumulonimbus
Becoming
from 01 at 15 UTC to 01 at 17 UTC
Wind 3 kt from variable directions
Becoming
from 02 at 09 UTC to 02 at 11 UTC
Wind 5 kt from the West

TAF: EDFH 011100Z 0112/0212 06005KT CAVOK BECMG 0115/0117 VRB03KT BECMG 0209/0211 28005KT

Weather observations and forecasts of more than 4000 airports (METAR and TAF reports).

The available stations are represented by yellow and red dots on the map.

Hover mouse over dot to see the name of the station.

Then click to see weather observations and forecasts.

To change the map : click on the green buttons with a black cross to zoom in, on the green button with a dash to zoom out, or on the green arrows for adjacent maps.


METAR-TAF: